createdAt,value
2022-08-25T00:01:20.349Z,12.73
2022-08-25T00:05:22.287Z,13.63
2022-08-25T00:09:27.430Z,13.77
2022-08-25T00:13:29.688Z,13.35
2022-08-25T00:17:31.359Z,13.25
2022-08-25T00:21:33.441Z,12.30
2022-08-25T00:25:35.153Z,12.73
2022-08-25T00:29:38.090Z,13.55
2022-08-25T00:33:39.971Z,12.52
2022-08-25T00:37:41.603Z,12.68
2022-08-25T00:41:43.814Z,13.35
2022-08-25T00:45:46.056Z,13.65
2022-08-25T00:49:56.380Z,13.68
2022-08-25T00:53:58.572Z,13.10
2022-08-25T00:58:07.612Z,14.15
2022-08-25T01:02:10.240Z,13.95
2022-08-25T01:06:15.773Z,13.20
2022-08-25T01:10:19.081Z,13.57
2022-08-25T01:14:23.185Z,12.98
2022-08-25T01:18:25.615Z,13.15
2022-08-25T01:22:27.206Z,12.68
2022-08-25T01:26:32.893Z,13.38
2022-08-25T01:30:35.087Z,13.55
2022-08-25T01:34:41.418Z,12.88
2022-08-25T01:38:43.054Z,13.30
2022-08-25T01:43:00.209Z,14.35
2022-08-25T01:47:03.448Z,13.77
2022-08-25T01:51:05.164Z,12.52
2022-08-25T01:55:07.275Z,13.43
2022-08-25T01:59:09.309Z,13.27
2022-08-25T02:03:18.591Z,12.38
2022-08-25T02:07:20.833Z,12.55
2022-08-25T02:11:24.113Z,12.57
2022-08-25T02:15:25.838Z,12.93
2022-08-25T02:19:27.497Z,12.52
2022-08-25T02:23:29.182Z,12.07
2022-08-25T02:27:30.897Z,12.70
2022-08-25T02:31:32.466Z,12.43
2022-08-25T02:35:34.546Z,11.82
2022-08-25T02:39:36.748Z,11.63
2022-08-25T02:43:39.677Z,11.40
2022-08-25T02:47:41.713Z,12.20
2022-08-25T02:51:43.326Z,11.48
2022-08-25T02:55:45.519Z,11.63
2022-08-25T02:59:48.454Z,10.85
2022-08-25T03:03:52.124Z,10.02
2022-08-25T03:08:02.856Z,9.32
2022-08-25T03:12:05.178Z,10.30
2022-08-25T03:16:10.936Z,10.10
2022-08-25T03:20:13.547Z,9.15
2022-08-25T03:24:15.204Z,9.82
2022-08-25T03:28:17.643Z,9.40
2022-08-25T03:32:19.219Z,8.52
2022-08-25T03:36:20.866Z,9.35
2022-08-25T03:40:23.346Z,8.93
2022-08-25T03:44:25.068Z,9.13
2022-08-25T03:48:26.658Z,7.53
2022-08-25T03:52:28.377Z,9.05
2022-08-25T03:56:30.808Z,7.18
2022-08-25T04:00:32.453Z,8.18
2022-08-25T04:04:35.159Z,9.18
2022-08-25T04:08:37.778Z,8.77
2022-08-25T04:12:39.810Z,8.57
2022-08-25T04:16:41.549Z,8.75
2022-08-25T04:20:46.772Z,8.30
2022-08-25T04:24:48.778Z,8.55
2022-08-25T04:28:50.971Z,8.75
2022-08-25T04:32:52.577Z,8.90
2022-08-25T04:36:54.447Z,8.93
2022-08-25T04:40:58.648Z,8.77
2022-08-25T04:45:01.859Z,8.23
2022-08-25T04:49:05.028Z,7.75
2022-08-25T04:53:06.833Z,8.60
2022-08-25T04:57:08.471Z,7.88
2022-08-25T05:01:15.535Z,7.63
2022-08-25T05:05:17.207Z,7.07
2022-08-25T05:09:19.915Z,7.72
2022-08-25T05:13:24.805Z,7.88
2022-08-25T05:17:27.965Z,7.28
2022-08-25T05:21:29.687Z,7.40
2022-08-25T05:25:32.767Z,7.80
2022-08-25T05:29:34.377Z,7.00
2022-08-25T05:33:37.198Z,7.70
2022-08-25T05:37:38.914Z,6.85
2022-08-25T05:41:40.853Z,7.00
2022-08-25T05:45:42.536Z,7.22
2022-08-25T05:49:44.146Z,6.43
2022-08-25T05:53:48.333Z,6.47
2022-08-25T05:57:50.133Z,7.22
2022-08-25T06:02:10.569Z,6.32
2022-08-25T06:06:12.257Z,5.82
2022-08-25T06:10:14.530Z,7.20
2022-08-25T06:14:16.655Z,6.72
2022-08-25T06:18:18.239Z,6.97
2022-08-25T06:22:19.873Z,6.18
2022-08-25T06:26:21.742Z,6.00
2022-08-25T06:30:28.979Z,6.75
2022-08-25T06:34:30.827Z,6.40
2022-08-25T06:38:32.526Z,6.30
2022-08-25T06:42:34.840Z,6.25
2022-08-25T06:46:37.289Z,6.72
2022-08-25T06:50:40.277Z,6.85
2022-08-25T06:54:42.146Z,5.70
2022-08-25T06:58:44.039Z,6.15
2022-08-25T07:02:45.662Z,5.47
2022-08-25T07:06:47.850Z,4.75
2022-08-25T07:10:49.517Z,5.80
2022-08-25T07:15:10.195Z,5.55
2022-08-25T07:19:14.763Z,5.28
2022-08-25T07:23:16.485Z,4.50
2022-08-25T07:27:18.381Z,5.68
2022-08-25T07:31:20.095Z,5.30
2022-08-25T07:35:24.595Z,4.82
2022-08-25T07:39:29.134Z,4.63
2022-08-25T07:43:30.869Z,5.78
2022-08-25T07:47:33.179Z,5.32
2022-08-25T07:51:35.025Z,5.57
2022-08-25T07:55:36.816Z,5.30
2022-08-25T07:59:42.584Z,5.35
2022-08-25T08:03:50.568Z,4.60
2022-08-25T08:07:54.137Z,4.95
2022-08-25T08:11:55.706Z,4.50
2022-08-25T08:15:57.461Z,4.57
2022-08-25T08:19:59.543Z,5.03
2022-08-25T08:24:05.071Z,4.75
2022-08-25T08:28:12.641Z,4.03
2022-08-25T08:32:15.023Z,4.30
2022-08-25T08:36:18.537Z,4.13
2022-08-25T08:40:21.000Z,3.80
2022-08-25T08:44:46.292Z,3.22
2022-08-25T08:48:54.474Z,3.65
2022-08-25T08:53:35.042Z,3.90
2022-08-25T08:57:44.956Z,3.90
2022-08-25T09:01:59.424Z,3.80
2022-08-25T09:06:07.771Z,4.00
2022-08-25T09:10:10.864Z,3.42
2022-08-25T09:14:30.409Z,4.00
2022-08-25T09:19:00.114Z,3.70
2022-08-25T09:23:07.473Z,3.13
2022-08-25T09:27:20.194Z,3.53
2022-08-25T09:31:35.778Z,3.83
2022-08-25T09:35:40.710Z,3.28
2022-08-25T09:39:42.383Z,2.88
2022-08-25T09:43:53.991Z,2.70
2022-08-25T09:47:55.627Z,2.72
2022-08-25T09:52:36.327Z,3.15
2022-08-25T09:56:56.547Z,2.70
2022-08-25T10:01:03.876Z,2.83
2022-08-25T10:05:24.733Z,2.72
2022-08-25T10:09:40.784Z,3.28
2022-08-25T10:13:48.983Z,2.50
2022-08-25T10:17:54.737Z,2.97
2022-08-25T10:22:22.070Z,2.78
2022-08-25T10:26:36.895Z,3.13
2022-08-25T10:31:01.517Z,2.50
2022-08-25T10:35:13.200Z,2.55
2022-08-25T10:39:36.687Z,3.08
2022-08-25T10:44:33.730Z,3.30
2022-08-25T10:49:08.564Z,2.80
2022-08-25T10:53:29.101Z,2.40
2022-08-25T10:57:34.218Z,3.10
2022-08-25T11:01:55.904Z,2.80
2022-08-25T11:06:12.422Z,3.22
2022-08-25T11:10:20.080Z,2.70
2022-08-25T11:14:25.130Z,2.85
2022-08-25T11:18:31.822Z,2.60
2022-08-25T11:22:40.705Z,2.80
2022-08-25T11:26:48.550Z,2.35
2022-08-25T11:30:57.439Z,2.38
2022-08-25T11:35:02.276Z,2.20
2022-08-25T11:39:11.466Z,2.05
2022-08-25T11:43:35.637Z,2.67
2022-08-25T11:47:58.902Z,2.00
2022-08-25T11:52:03.029Z,2.47
2022-08-25T11:56:33.188Z,2.50
2022-08-25T12:00:43.347Z,2.63
2022-08-25T12:04:45.756Z,2.53
2022-08-25T12:09:12.715Z,3.00
2022-08-25T12:13:40.974Z,2.30
2022-08-25T12:17:42.589Z,2.35
2022-08-25T12:21:44.274Z,2.83
2022-08-25T12:25:53.418Z,2.60
2022-08-25T12:30:05.603Z,2.80
2022-08-25T12:34:40.744Z,2.28
2022-08-25T12:38:52.117Z,2.20
2022-08-25T12:43:04.427Z,2.20
2022-08-25T12:47:32.407Z,2.25
2022-08-25T12:51:34.015Z,2.78
2022-08-25T12:55:39.732Z,2.00
2022-08-25T12:59:48.728Z,2.20
2022-08-25T13:04:11.677Z,2.50
2022-08-25T13:08:46.941Z,2.75
2022-08-25T13:13:07.192Z,2.67
2022-08-25T13:17:09.986Z,3.00
2022-08-25T13:21:24.701Z,3.35
2022-08-25T13:25:32.703Z,2.92
2022-08-25T13:29:48.764Z,2.72
2022-08-25T13:33:59.721Z,3.00
2022-08-25T13:38:19.433Z,3.55
2022-08-25T13:42:23.940Z,3.10
2022-08-25T13:46:31.697Z,3.38
2022-08-25T13:50:37.354Z,2.80
2022-08-25T13:54:41.947Z,3.30
2022-08-25T13:58:46.715Z,3.05
2022-08-25T14:02:52.170Z,3.55
2022-08-25T14:07:21.222Z,3.70
2022-08-25T14:11:41.041Z,3.40
2022-08-25T14:15:45.906Z,3.20
2022-08-25T14:19:47.727Z,4.07
2022-08-25T14:23:49.513Z,3.38
2022-08-25T14:28:16.180Z,3.42
2022-08-25T14:32:17.894Z,4.03
2022-08-25T14:36:20.906Z,3.00
2022-08-25T14:40:22.844Z,2.80
2022-08-25T14:44:24.555Z,3.78
2022-08-25T14:48:52.126Z,2.90
2022-08-25T14:52:53.773Z,3.15
2022-08-25T14:57:00.032Z,3.03
2022-08-25T15:01:06.055Z,2.63
2022-08-25T15:05:12.492Z,2.80
2022-08-25T15:09:18.117Z,4.57
2022-08-25T15:13:21.489Z,6.17
2022-08-25T15:17:23.438Z,6.80
2022-08-25T15:21:25.090Z,7.15
2022-08-25T15:25:27.026Z,15.27
2022-08-25T15:29:30.532Z,18.33
2022-08-25T15:33:32.126Z,20.33
2022-08-25T15:37:35.672Z,20.02
2022-08-25T15:41:37.866Z,20.60
2022-08-25T15:45:40.102Z,21.05
2022-08-25T15:49:43.097Z,24.90
2022-08-25T15:53:45.946Z,23.40
2022-08-25T15:57:47.921Z,24.00
2022-08-25T16:01:53.580Z,23.30
2022-08-25T16:05:55.633Z,24.48
2022-08-25T16:09:58.320Z,23.42
2022-08-25T16:14:00.076Z,24.35
2022-08-25T16:18:04.792Z,21.77
2022-08-25T16:22:08.943Z,24.13
2022-08-25T16:26:13.055Z,26.10
2022-08-25T16:30:17.506Z,24.67
2022-08-25T16:34:19.470Z,25.38
2022-08-25T16:38:21.051Z,28.08
2022-08-25T16:42:22.655Z,24.60
2022-08-25T16:46:24.300Z,25.50
2022-08-25T16:50:26.053Z,26.05
2022-08-25T16:54:48.410Z,26.60
2022-08-25T16:58:53.989Z,24.40
2022-08-25T17:02:59.489Z,23.02
2022-08-25T17:07:01.959Z,23.63
2022-08-25T17:11:10.974Z,21.60
2022-08-25T17:15:12.569Z,23.13
2022-08-25T17:19:16.078Z,19.33
2022-08-25T17:23:18.206Z,18.80
2022-08-25T17:27:23.440Z,18.10
2022-08-25T17:31:25.586Z,18.27
2022-08-25T17:35:27.437Z,17.77
2022-08-25T17:39:29.122Z,19.02
2022-08-25T17:43:31.318Z,18.65
2022-08-25T17:47:33.080Z,18.27
2022-08-25T17:51:35.249Z,17.58
2022-08-25T17:55:38.895Z,19.95
2022-08-25T17:59:44.197Z,20.98
2022-08-25T18:03:46.616Z,19.13
2022-08-25T18:07:48.230Z,18.67
2022-08-25T18:11:52.516Z,15.20
2022-08-25T18:15:54.130Z,9.90
2022-08-25T18:19:55.770Z,7.75
2022-08-25T18:23:57.499Z,7.50
2022-08-25T18:27:59.138Z,6.03
2022-08-25T18:32:00.881Z,5.90
2022-08-25T18:36:02.721Z,6.55
2022-08-25T18:40:23.812Z,6.85
2022-08-25T18:44:25.567Z,7.82
2022-08-25T18:48:27.631Z,9.15
2022-08-25T18:52:29.234Z,10.00
2022-08-25T18:56:31.075Z,12.38
2022-08-25T19:00:33.819Z,9.90
2022-08-25T19:04:35.503Z,11.63
2022-08-25T19:08:39.494Z,9.82
2022-08-25T19:12:43.594Z,11.48
2022-08-25T19:16:45.783Z,11.73
2022-08-25T19:20:47.545Z,12.00
2022-08-25T19:24:49.720Z,13.52
2022-08-25T19:28:52.709Z,11.35
2022-08-25T19:32:55.416Z,10.80
2022-08-25T19:37:02.140Z,10.93
2022-08-25T19:41:09.042Z,10.07
2022-08-25T19:45:16.050Z,9.00
2022-08-25T19:49:27.670Z,8.82
2022-08-25T19:53:34.529Z,8.93
2022-08-25T19:57:42.991Z,8.43
2022-08-25T20:01:47.292Z,8.13
2022-08-25T20:05:51.160Z,8.80
2022-08-25T20:09:54.058Z,7.32
2022-08-25T20:13:59.307Z,8.82
2022-08-25T20:18:03.656Z,5.28
2022-08-25T20:22:06.465Z,4.65
2022-08-25T20:26:12.818Z,3.85
2022-08-25T20:30:28.980Z,3.05
2022-08-25T20:34:30.826Z,2.50
2022-08-25T20:38:34.276Z,1.80
2022-08-25T20:42:35.994Z,2.15
2022-08-25T20:46:39.300Z,2.38
2022-08-25T20:50:40.995Z,2.17
2022-08-25T20:54:49.321Z,1.65
2022-08-25T20:58:52.067Z,1.80
2022-08-25T21:02:54.133Z,1.80
2022-08-25T21:06:57.098Z,1.33
2022-08-25T21:10:58.829Z,1.77
2022-08-25T21:15:00.512Z,2.13
2022-08-25T21:19:02.478Z,2.17
2022-08-25T21:23:04.168Z,1.90
2022-08-25T21:27:08.255Z,2.10
2022-08-25T21:31:11.177Z,2.35
2022-08-25T21:35:13.225Z,2.03
2022-08-25T21:39:15.056Z,1.73
2022-08-25T21:43:18.631Z,3.17
2022-08-25T21:47:21.607Z,1.90
2022-08-25T21:51:30.980Z,2.10
2022-08-25T21:55:38.065Z,1.83
2022-08-25T21:59:43.772Z,2.72
2022-08-25T22:03:47.101Z,1.92
2022-08-25T22:07:49.032Z,1.77
2022-08-25T22:11:50.908Z,2.30
2022-08-25T22:15:52.949Z,1.95
2022-08-25T22:19:55.739Z,1.88
2022-08-25T22:23:57.562Z,1.45
2022-08-25T22:27:59.138Z,1.65
2022-08-25T22:32:02.420Z,2.03
2022-08-25T22:36:13.642Z,2.20
2022-08-25T22:40:15.482Z,1.15
2022-08-25T22:44:19.019Z,1.48
2022-08-25T22:48:20.780Z,1.50
2022-08-25T22:52:22.843Z,1.33
2022-08-25T22:56:37.364Z,1.45
2022-08-25T23:00:40.145Z,1.83
2022-08-25T23:04:43.537Z,1.83
2022-08-25T23:08:45.343Z,1.08
2022-08-25T23:12:46.939Z,1.63
2022-08-25T23:16:50.116Z,1.30
2022-08-25T23:21:10.571Z,2.85
2022-08-25T23:25:12.225Z,1.88
2022-08-25T23:29:17.910Z,1.15
2022-08-25T23:33:21.484Z,2.13
2022-08-25T23:37:23.149Z,2.42
2022-08-25T23:41:25.911Z,1.20
2022-08-25T23:45:28.342Z,1.13
2022-08-25T23:49:32.642Z,1.33
2022-08-25T23:53:35.638Z,1.13
2022-08-25T23:57:37.232Z,1.45
